sensor_id;sensor_type;location;lat;lon;timestamp;P1;durP1;ratioP1;P2;durP2;ratioP2
815;SDS011;25928;51.062;13.752;2023-02-05T00:01:13;1.60;;;1.47;;
815;SDS011;25928;51.062;13.752;2023-02-05T00:03:39;2.03;;;1.80;;
815;SDS011;25928;51.062;13.752;2023-02-05T00:06:04;2.30;;;2.00;;
815;SDS011;25928;51.062;13.752;2023-02-05T00:08:30;3.27;;;1.60;;
815;SDS011;25928;51.062;13.752;2023-02-05T00:10:57;1.70;;;1.30;;
815;SDS011;25928;51.062;13.752;2023-02-05T00:13:23;1.60;;;1.23;;
815;SDS011;25928;51.062;13.752;2023-02-05T00:15:48;2.33;;;1.37;;
815;SDS011;25928;51.062;13.752;2023-02-05T00:18:14;1.60;;;1.43;;
815;SDS011;25928;51.062;13.752;2023-02-05T00:20:40;3.40;;;1.17;;
815;SDS011;25928;51.062;13.752;2023-02-05T00:23:05;1.83;;;1.07;;
815;SDS011;25928;51.062;13.752;2023-02-05T00:25:31;1.50;;;1.40;;
815;SDS011;25928;51.062;13.752;2023-02-05T00:27:57;2.77;;;1.57;;
815;SDS011;25928;51.062;13.752;2023-02-05T00:30:23;2.13;;;1.50;;
815;SDS011;25928;51.062;13.752;2023-02-05T00:32:49;1.27;;;0.87;;
815;SDS011;25928;51.062;13.752;2023-02-05T00:35:14;2.27;;;1.50;;
815;SDS011;25928;51.062;13.752;2023-02-05T00:37:40;2.00;;;1.47;;
815;SDS011;25928;51.062;13.752;2023-02-05T00:40:06;2.53;;;1.30;;
815;SDS011;25928;51.062;13.752;2023-02-05T00:42:31;1.50;;;1.40;;
815;SDS011;25928;51.062;13.752;2023-02-05T00:44:57;2.43;;;1.97;;
815;SDS011;25928;51.062;13.752;2023-02-05T00:47:27;2.50;;;1.83;;
815;SDS011;25928;51.062;13.752;2023-02-05T00:49:52;3.07;;;1.63;;
815;SDS011;25928;51.062;13.752;2023-02-05T00:52:18;3.90;;;1.80;;
815;SDS011;25928;51.062;13.752;2023-02-05T00:54:43;3.73;;;2.30;;
815;SDS011;25928;51.062;13.752;2023-02-05T00:57:09;4.03;;;2.57;;
815;SDS011;25928;51.062;13.752;2023-02-05T00:59:35;5.63;;;2.53;;
815;SDS011;25928;51.062;13.752;2023-02-05T01:02:00;5.20;;;2.60;;
815;SDS011;25928;51.062;13.752;2023-02-05T01:04:26;12.27;;;3.73;;
815;SDS011;25928;51.062;13.752;2023-02-05T01:06:52;6.07;;;3.23;;
815;SDS011;25928;51.062;13.752;2023-02-05T01:09:17;5.10;;;2.90;;
815;SDS011;25928;51.062;13.752;2023-02-05T01:11:43;5.80;;;4.07;;
815;SDS011;25928;51.062;13.752;2023-02-05T01:14:08;4.20;;;3.00;;
815;SDS011;25928;51.062;13.752;2023-02-05T01:16:34;4.93;;;3.10;;
815;SDS011;25928;51.062;13.752;2023-02-05T01:19:00;7.80;;;3.43;;
815;SDS011;25928;51.062;13.752;2023-02-05T01:21:26;5.47;;;3.50;;
815;SDS011;25928;51.062;13.752;2023-02-05T01:23:51;6.67;;;3.80;;
815;SDS011;25928;51.062;13.752;2023-02-05T01:26:18;7.23;;;4.10;;
815;SDS011;25928;51.062;13.752;2023-02-05T01:28:44;7.17;;;2.80;;
815;SDS011;25928;51.062;13.752;2023-02-05T01:31:12;3.17;;;2.07;;
815;SDS011;25928;51.062;13.752;2023-02-05T01:33:38;4.07;;;2.03;;
815;SDS011;25928;51.062;13.752;2023-02-05T01:36:03;5.50;;;2.47;;
815;SDS011;25928;51.062;13.752;2023-02-05T01:38:29;3.27;;;2.13;;
815;SDS011;25928;51.062;13.752;2023-02-05T01:40:55;2.87;;;2.10;;
815;SDS011;25928;51.062;13.752;2023-02-05T01:43:24;2.80;;;2.43;;
815;SDS011;25928;51.062;13.752;2023-02-05T01:48:23;4.33;;;2.77;;
815;SDS011;25928;51.062;13.752;2023-02-05T01:50:56;4.37;;;3.33;;
815;SDS011;25928;51.062;13.752;2023-02-05T01:53:27;4.00;;;2.80;;
815;SDS011;25928;51.062;13.752;2023-02-05T01:55:58;5.03;;;2.80;;
815;SDS011;25928;51.062;13.752;2023-02-05T01:58:28;5.17;;;2.83;;
815;SDS011;25928;51.062;13.752;2023-02-05T02:00:56;2.67;;;2.47;;
815;SDS011;25928;51.062;13.752;2023-02-05T02:03:22;4.83;;;2.73;;
815;SDS011;25928;51.062;13.752;2023-02-05T02:05:52;3.43;;;1.87;;
815;SDS011;25928;51.062;13.752;2023-02-05T02:08:18;3.37;;;2.37;;
815;SDS011;25928;51.062;13.752;2023-02-05T02:10:44;5.13;;;2.10;;
815;SDS011;25928;51.062;13.752;2023-02-05T02:13:12;2.40;;;1.73;;
815;SDS011;25928;51.062;13.752;2023-02-05T02:15:38;2.30;;;1.67;;
815;SDS011;25928;51.062;13.752;2023-02-05T02:18:04;3.20;;;1.60;;
815;SDS011;25928;51.062;13.752;2023-02-05T02:29:41;3.77;;;1.40;;
815;SDS011;25928;51.062;13.752;2023-02-05T02:32:28;3.40;;;1.53;;
815;SDS011;25928;51.062;13.752;2023-02-05T02:40:54;2.33;;;1.30;;
815;SDS011;25928;51.062;13.752;2023-02-05T02:46:20;3.60;;;1.30;;
815;SDS011;25928;51.062;13.752;2023-02-05T02:48:48;3.10;;;1.30;;
815;SDS011;25928;51.062;13.752;2023-02-05T02:51:16;3.80;;;1.20;;
815;SDS011;25928;51.062;13.752;2023-02-05T02:53:46;2.77;;;1.90;;
815;SDS011;25928;51.062;13.752;2023-02-05T02:56:14;1.30;;;1.20;;
815;SDS011;25928;51.062;13.752;2023-02-05T02:58:42;2.83;;;1.87;;
815;SDS011;25928;51.062;13.752;2023-02-05T03:01:12;1.53;;;1.20;;
815;SDS011;25928;51.062;13.752;2023-02-05T03:03:42;1.90;;;1.73;;
815;SDS011;25928;51.062;13.752;2023-02-05T03:06:13;1.90;;;1.70;;
815;SDS011;25928;51.062;13.752;2023-02-05T03:08:51;2.77;;;1.73;;
815;SDS011;25928;51.062;13.752;2023-02-05T03:11:23;4.67;;;2.10;;
815;SDS011;25928;51.062;13.752;2023-02-05T03:13:50;3.63;;;1.53;;
815;SDS011;25928;51.062;13.752;2023-02-05T03:16:16;2.00;;;1.63;;
815;SDS011;25928;51.062;13.752;2023-02-05T03:18:43;2.30;;;1.90;;
815;SDS011;25928;51.062;13.752;2023-02-05T03:21:32;2.50;;;1.60;;
815;SDS011;25928;51.062;13.752;2023-02-05T03:24:00;3.23;;;1.90;;
815;SDS011;25928;51.062;13.752;2023-02-05T03:26:27;4.27;;;1.97;;
815;SDS011;25928;51.062;13.752;2023-02-05T03:28:59;3.20;;;1.90;;
815;SDS011;25928;51.062;13.752;2023-02-05T03:31:47;5.17;;;2.23;;
815;SDS011;25928;51.062;13.752;2023-02-05T03:34:25;3.20;;;1.60;;
815;SDS011;25928;51.062;13.752;2023-02-05T03:52:56;2.80;;;2.20;;
815;SDS011;25928;51.062;13.752;2023-02-05T03:55:30;2.30;;;1.57;;
815;SDS011;25928;51.062;13.752;2023-02-05T03:58:13;5.00;;;1.70;;
815;SDS011;25928;51.062;13.752;2023-02-05T04:00:43;3.57;;;1.97;;
815;SDS011;25928;51.062;13.752;2023-02-05T04:03:10;3.00;;;2.07;;
815;SDS011;25928;51.062;13.752;2023-02-05T04:05:36;3.73;;;2.10;;
815;SDS011;25928;51.062;13.752;2023-02-05T04:08:02;2.80;;;2.00;;
815;SDS011;25928;51.062;13.752;2023-02-05T04:10:27;2.57;;;1.60;;
815;SDS011;25928;51.062;13.752;2023-02-05T04:12:53;4.97;;;2.07;;
815;SDS011;25928;51.062;13.752;2023-02-05T04:15:19;4.07;;;1.70;;
815;SDS011;25928;51.062;13.752;2023-02-05T04:17:44;3.40;;;2.10;;
815;SDS011;25928;51.062;13.752;2023-02-05T04:20:10;4.00;;;2.10;;
815;SDS011;25928;51.062;13.752;2023-02-05T04:22:36;2.60;;;1.77;;
815;SDS011;25928;51.062;13.752;2023-02-05T04:25:01;6.43;;;2.20;;
815;SDS011;25928;51.062;13.752;2023-02-05T04:27:27;3.03;;;2.13;;
815;SDS011;25928;51.062;13.752;2023-02-05T04:29:52;3.50;;;1.90;;
815;SDS011;25928;51.062;13.752;2023-02-05T04:32:18;2.33;;;1.50;;
815;SDS011;25928;51.062;13.752;2023-02-05T04:34:44;3.23;;;1.80;;
815;SDS011;25928;51.062;13.752;2023-02-05T04:37:10;1.80;;;1.70;;
815;SDS011;25928;51.062;13.752;2023-02-05T04:39:36;2.90;;;2.03;;
815;SDS011;25928;51.062;13.752;2023-02-05T04:42:02;2.00;;;1.60;;
815;SDS011;25928;51.062;13.752;2023-02-05T04:44:27;3.63;;;2.10;;
815;SDS011;25928;51.062;13.752;2023-02-05T04:46:53;2.50;;;2.07;;
815;SDS011;25928;51.062;13.752;2023-02-05T04:49:18;1.60;;;1.50;;
815;SDS011;25928;51.062;13.752;2023-02-05T04:51:44;1.57;;;1.47;;
815;SDS011;25928;51.062;13.752;2023-02-05T04:54:10;5.30;;;2.00;;
815;SDS011;25928;51.062;13.752;2023-02-05T04:56:35;3.10;;;2.30;;
815;SDS011;25928;51.062;13.752;2023-02-05T04:59:03;2.63;;;2.13;;
815;SDS011;25928;51.062;13.752;2023-02-05T05:01:28;5.27;;;2.40;;
815;SDS011;25928;51.062;13.752;2023-02-05T05:03:54;1.73;;;1.63;;
815;SDS011;25928;51.062;13.752;2023-02-05T05:06:20;3.30;;;1.60;;
815;SDS011;25928;51.062;13.752;2023-02-05T05:08:46;8.50;;;2.40;;
815;SDS011;25928;51.062;13.752;2023-02-05T05:11:13;3.17;;;1.87;;
815;SDS011;25928;51.062;13.752;2023-02-05T05:13:40;3.80;;;2.50;;
815;SDS011;25928;51.062;13.752;2023-02-05T05:16:06;4.57;;;2.20;;
815;SDS011;25928;51.062;13.752;2023-02-05T05:18:33;2.33;;;2.07;;
815;SDS011;25928;51.062;13.752;2023-02-05T05:20:59;4.50;;;2.63;;
815;SDS011;25928;51.062;13.752;2023-02-05T05:23:25;3.57;;;2.00;;
815;SDS011;25928;51.062;13.752;2023-02-05T05:25:51;3.97;;;2.43;;
815;SDS011;25928;51.062;13.752;2023-02-05T05:28:17;3.30;;;2.53;;
815;SDS011;25928;51.062;13.752;2023-02-05T05:30:43;4.00;;;1.90;;
815;SDS011;25928;51.062;13.752;2023-02-05T05:33:10;3.83;;;2.47;;
815;SDS011;25928;51.062;13.752;2023-02-05T05:35:36;3.40;;;2.10;;
815;SDS011;25928;51.062;13.752;2023-02-05T05:38:03;2.23;;;1.83;;
815;SDS011;25928;51.062;13.752;2023-02-05T05:40:29;2.43;;;1.93;;
815;SDS011;25928;51.062;13.752;2023-02-05T05:43:14;2.60;;;2.40;;
815;SDS011;25928;51.062;13.752;2023-02-05T05:46:00;2.20;;;1.83;;
815;SDS011;25928;51.062;13.752;2023-02-05T05:48:26;2.40;;;2.20;;
815;SDS011;25928;51.062;13.752;2023-02-05T05:50:52;2.40;;;2.13;;
815;SDS011;25928;51.062;13.752;2023-02-05T05:53:18;1.70;;;1.60;;
815;SDS011;25928;51.062;13.752;2023-02-05T05:55:45;3.03;;;2.63;;
815;SDS011;25928;51.062;13.752;2023-02-05T05:58:10;4.13;;;2.43;;
815;SDS011;25928;51.062;13.752;2023-02-05T06:00:36;4.63;;;1.77;;
815;SDS011;25928;51.062;13.752;2023-02-05T06:03:04;4.10;;;2.00;;
815;SDS011;25928;51.062;13.752;2023-02-05T06:05:30;3.17;;;2.00;;
815;SDS011;25928;51.062;13.752;2023-02-05T06:07:56;5.43;;;2.53;;
815;SDS011;25928;51.062;13.752;2023-02-05T06:10:22;2.53;;;1.97;;
815;SDS011;25928;51.062;13.752;2023-02-05T06:12:48;3.50;;;2.10;;
815;SDS011;25928;51.062;13.752;2023-02-05T06:15:14;2.60;;;2.00;;
815;SDS011;25928;51.062;13.752;2023-02-05T06:17:40;5.73;;;2.50;;
815;SDS011;25928;51.062;13.752;2023-02-05T06:20:06;3.63;;;2.00;;
815;SDS011;25928;51.062;13.752;2023-02-05T06:22:33;2.60;;;2.10;;
815;SDS011;25928;51.062;13.752;2023-02-05T06:24:59;3.83;;;1.90;;
815;SDS011;25928;51.062;13.752;2023-02-05T06:27:26;1.60;;;1.43;;
815;SDS011;25928;51.062;13.752;2023-02-05T06:29:52;3.30;;;2.00;;
815;SDS011;25928;51.062;13.752;2023-02-05T06:32:17;2.70;;;1.73;;
815;SDS011;25928;51.062;13.752;2023-02-05T06:34:43;2.13;;;1.77;;
815;SDS011;25928;51.062;13.752;2023-02-05T06:37:09;2.57;;;1.70;;
815;SDS011;25928;51.062;13.752;2023-02-05T06:39:34;5.67;;;2.10;;
815;SDS011;25928;51.062;13.752;2023-02-05T06:42:00;2.20;;;2.00;;
815;SDS011;25928;51.062;13.752;2023-02-05T06:44:26;1.53;;;1.30;;
815;SDS011;25928;51.062;13.752;2023-02-05T06:46:51;5.83;;;2.40;;
815;SDS011;25928;51.062;13.752;2023-02-05T06:49:17;2.97;;;2.47;;
815;SDS011;25928;51.062;13.752;2023-02-05T06:51:43;3.63;;;2.30;;
815;SDS011;25928;51.062;13.752;2023-02-05T06:54:08;3.30;;;2.30;;
815;SDS011;25928;51.062;13.752;2023-02-05T06:56:35;4.23;;;1.83;;
815;SDS011;25928;51.062;13.752;2023-02-05T06:59:01;3.63;;;2.60;;
815;SDS011;25928;51.062;13.752;2023-02-05T07:01:27;2.20;;;1.70;;
815;SDS011;25928;51.062;13.752;2023-02-05T07:03:52;2.23;;;1.93;;
815;SDS011;25928;51.062;13.752;2023-02-05T07:06:20;2.90;;;2.20;;
815;SDS011;25928;51.062;13.752;2023-02-05T07:08:48;5.77;;;2.50;;
815;SDS011;25928;51.062;13.752;2023-02-05T07:11:15;3.90;;;2.23;;
815;SDS011;25928;51.062;13.752;2023-02-05T07:13:41;2.23;;;1.80;;
815;SDS011;25928;51.062;13.752;2023-02-05T07:16:07;4.27;;;2.33;;
815;SDS011;25928;51.062;13.752;2023-02-05T07:18:33;4.03;;;2.20;;
815;SDS011;25928;51.062;13.752;2023-02-05T07:20:59;2.33;;;1.90;;
815;SDS011;25928;51.062;13.752;2023-02-05T07:23:28;2.90;;;2.60;;
815;SDS011;25928;51.062;13.752;2023-02-05T07:25:53;2.70;;;2.37;;
815;SDS011;25928;51.062;13.752;2023-02-05T07:28:19;2.43;;;2.10;;
815;SDS011;25928;51.062;13.752;2023-02-05T07:30:44;3.50;;;3.20;;
815;SDS011;25928;51.062;13.752;2023-02-05T07:33:11;4.83;;;2.37;;
815;SDS011;25928;51.062;13.752;2023-02-05T07:35:37;2.90;;;2.30;;
815;SDS011;25928;51.062;13.752;2023-02-05T07:38:03;5.90;;;2.20;;
815;SDS011;25928;51.062;13.752;2023-02-05T07:40:29;4.87;;;2.37;;
815;SDS011;25928;51.062;13.752;2023-02-05T07:42:55;4.33;;;2.27;;
815;SDS011;25928;51.062;13.752;2023-02-05T07:45:21;12.00;;;2.57;;
815;SDS011;25928;51.062;13.752;2023-02-05T07:47:46;3.47;;;2.37;;
815;SDS011;25928;51.062;13.752;2023-02-05T07:50:15;2.60;;;2.30;;
815;SDS011;25928;51.062;13.752;2023-02-05T07:52:41;2.27;;;1.90;;
815;SDS011;25928;51.062;13.752;2023-02-05T07:55:07;3.20;;;2.00;;
815;SDS011;25928;51.062;13.752;2023-02-05T07:57:33;2.70;;;2.50;;
815;SDS011;25928;51.062;13.752;2023-02-05T07:59:59;2.03;;;1.60;;
815;SDS011;25928;51.062;13.752;2023-02-05T08:02:24;7.70;;;3.03;;
815;SDS011;25928;51.062;13.752;2023-02-05T08:04:50;6.90;;;2.33;;
815;SDS011;25928;51.062;13.752;2023-02-05T08:07:16;4.13;;;2.53;;
815;SDS011;25928;51.062;13.752;2023-02-05T08:09:41;3.20;;;2.20;;
815;SDS011;25928;51.062;13.752;2023-02-05T08:12:07;2.93;;;1.83;;
815;SDS011;25928;51.062;13.752;2023-02-05T08:14:33;4.60;;;1.93;;
815;SDS011;25928;51.062;13.752;2023-02-05T08:16:59;6.10;;;3.10;;
815;SDS011;25928;51.062;13.752;2023-02-05T08:19:25;3.03;;;1.97;;
815;SDS011;25928;51.062;13.752;2023-02-05T08:21:51;4.93;;;2.47;;
815;SDS011;25928;51.062;13.752;2023-02-05T08:24:17;3.03;;;1.97;;
815;SDS011;25928;51.062;13.752;2023-02-05T08:26:43;4.50;;;2.77;;
815;SDS011;25928;51.062;13.752;2023-02-05T08:29:10;3.63;;;2.80;;
815;SDS011;25928;51.062;13.752;2023-02-05T08:31:36;5.10;;;2.20;;
815;SDS011;25928;51.062;13.752;2023-02-05T08:34:02;4.43;;;2.07;;
815;SDS011;25928;51.062;13.752;2023-02-05T08:36:28;3.50;;;2.40;;
815;SDS011;25928;51.062;13.752;2023-02-05T08:38:54;5.33;;;2.07;;
815;SDS011;25928;51.062;13.752;2023-02-05T08:41:20;2.00;;;1.43;;
815;SDS011;25928;51.062;13.752;2023-02-05T08:43:47;4.10;;;2.30;;
815;SDS011;25928;51.062;13.752;2023-02-05T08:46:15;2.13;;;1.83;;
815;SDS011;25928;51.062;13.752;2023-02-05T08:48:44;2.87;;;1.90;;
815;SDS011;25928;51.062;13.752;2023-02-05T08:51:11;2.50;;;1.93;;
815;SDS011;25928;51.062;13.752;2023-02-05T08:53:37;2.63;;;1.87;;
815;SDS011;25928;51.062;13.752;2023-02-05T08:56:04;2.00;;;1.80;;
815;SDS011;25928;51.062;13.752;2023-02-05T08:58:30;2.00;;;1.70;;
815;SDS011;25928;51.062;13.752;2023-02-05T09:01:00;3.17;;;1.70;;
815;SDS011;25928;51.062;13.752;2023-02-05T09:03:31;2.93;;;2.10;;
815;SDS011;25928;51.062;13.752;2023-02-05T09:05:57;2.73;;;2.10;;
815;SDS011;25928;51.062;13.752;2023-02-05T09:08:24;3.60;;;2.13;;
815;SDS011;25928;51.062;13.752;2023-02-05T09:10:51;2.30;;;1.70;;
815;SDS011;25928;51.062;13.752;2023-02-05T09:13:17;3.60;;;2.30;;
815;SDS011;25928;51.062;13.752;2023-02-05T09:15:43;1.70;;;1.40;;
815;SDS011;25928;51.062;13.752;2023-02-05T09:18:10;3.67;;;2.47;;
815;SDS011;25928;51.062;13.752;2023-02-05T09:20:40;2.27;;;1.87;;
815;SDS011;25928;51.062;13.752;2023-02-05T09:23:08;4.23;;;1.67;;
815;SDS011;25928;51.062;13.752;2023-02-05T09:25:35;2.27;;;1.47;;
815;SDS011;25928;51.062;13.752;2023-02-05T09:28:02;2.70;;;1.83;;
815;SDS011;25928;51.062;13.752;2023-02-05T09:30:28;2.73;;;1.83;;
815;SDS011;25928;51.062;13.752;2023-02-05T09:32:54;1.67;;;1.57;;
815;SDS011;25928;51.062;13.752;2023-02-05T09:35:19;2.43;;;2.20;;
815;SDS011;25928;51.062;13.752;2023-02-05T09:37:45;2.00;;;1.80;;
815;SDS011;25928;51.062;13.752;2023-02-05T09:40:15;3.23;;;2.30;;
815;SDS011;25928;51.062;13.752;2023-02-05T09:45:59;2.20;;;1.80;;
815;SDS011;25928;51.062;13.752;2023-02-05T09:51:11;2.60;;;1.73;;
815;SDS011;25928;51.062;13.752;2023-02-05T09:53:41;2.70;;;1.80;;
815;SDS011;25928;51.062;13.752;2023-02-05T09:56:11;2.03;;;1.43;;
815;SDS011;25928;51.062;13.752;2023-02-05T09:58:41;3.73;;;2.07;;
815;SDS011;25928;51.062;13.752;2023-02-05T10:01:15;4.93;;;3.00;;
815;SDS011;25928;51.062;13.752;2023-02-05T10:04:04;3.20;;;2.07;;
815;SDS011;25928;51.062;13.752;2023-02-05T10:06:40;4.00;;;2.03;;
815;SDS011;25928;51.062;13.752;2023-02-05T10:26:36;3.33;;;2.10;;
815;SDS011;25928;51.062;13.752;2023-02-05T10:29:34;2.90;;;1.70;;
815;SDS011;25928;51.062;13.752;2023-02-05T10:32:24;2.50;;;1.93;;
815;SDS011;25928;51.062;13.752;2023-02-05T10:35:07;3.47;;;2.13;;
815;SDS011;25928;51.062;13.752;2023-02-05T10:37:42;2.57;;;1.80;;
815;SDS011;25928;51.062;13.752;2023-02-05T10:40:16;2.50;;;1.60;;
815;SDS011;25928;51.062;13.752;2023-02-05T10:42:55;1.77;;;1.40;;
815;SDS011;25928;51.062;13.752;2023-02-05T10:45:28;1.83;;;1.63;;
815;SDS011;25928;51.062;13.752;2023-02-05T10:53:31;3.30;;;1.30;;
815;SDS011;25928;51.062;13.752;2023-02-05T10:55:57;3.20;;;1.67;;
815;SDS011;25928;51.062;13.752;2023-02-05T11:04:06;5.47;;;1.63;;
815;SDS011;25928;51.062;13.752;2023-02-05T11:06:38;1.43;;;1.33;;
815;SDS011;25928;51.062;13.752;2023-02-05T11:12:02;1.40;;;1.20;;
815;SDS011;25928;51.062;13.752;2023-02-05T11:17:06;2.27;;;1.50;;
815;SDS011;25928;51.062;13.752;2023-02-05T11:19:56;2.70;;;1.57;;
815;SDS011;25928;51.062;13.752;2023-02-05T11:22:31;1.70;;;1.10;;
815;SDS011;25928;51.062;13.752;2023-02-05T11:28:00;3.67;;;1.23;;
815;SDS011;25928;51.062;13.752;2023-02-05T11:33:05;2.30;;;0.93;;
815;SDS011;25928;51.062;13.752;2023-02-05T11:35:49;2.50;;;1.07;;
815;SDS011;25928;51.062;13.752;2023-02-05T11:39:02;3.00;;;1.30;;
815;SDS011;25928;51.062;13.752;2023-02-05T11:41:11;1.57;;;1.47;;
815;SDS011;25928;51.062;13.752;2023-02-05T11:43:44;2.87;;;1.50;;
815;SDS011;25928;51.062;13.752;2023-02-05T11:46:15;1.30;;;1.03;;
815;SDS011;25928;51.062;13.752;2023-02-05T11:48:45;1.50;;;1.30;;
815;SDS011;25928;51.062;13.752;2023-02-05T11:51:14;4.93;;;2.27;;
815;SDS011;25928;51.062;13.752;2023-02-05T11:53:56;3.53;;;1.57;;
815;SDS011;25928;51.062;13.752;2023-02-05T11:56:24;1.90;;;1.27;;
815;SDS011;25928;51.062;13.752;2023-02-05T11:59:00;2.33;;;1.60;;
815;SDS011;25928;51.062;13.752;2023-02-05T12:01:28;4.20;;;1.60;;
815;SDS011;25928;51.062;13.752;2023-02-05T12:06:45;3.10;;;1.70;;
815;SDS011;25928;51.062;13.752;2023-02-05T12:09:24;2.80;;;1.87;;
815;SDS011;25928;51.062;13.752;2023-02-05T12:11:58;3.07;;;1.50;;
815;SDS011;25928;51.062;13.752;2023-02-05T12:17:18;2.47;;;1.70;;
815;SDS011;25928;51.062;13.752;2023-02-05T12:25:33;3.33;;;1.80;;
815;SDS011;25928;51.062;13.752;2023-02-05T12:31:03;2.57;;;1.53;;
815;SDS011;25928;51.062;13.752;2023-02-05T12:42:25;3.43;;;2.17;;
815;SDS011;25928;51.062;13.752;2023-02-05T12:47:54;2.50;;;1.77;;
815;SDS011;25928;51.062;13.752;2023-02-05T12:51:02;2.27;;;1.43;;
815;SDS011;25928;51.062;13.752;2023-02-05T12:58:56;2.20;;;1.67;;
815;SDS011;25928;51.062;13.752;2023-02-05T13:01:36;2.23;;;1.70;;
815;SDS011;25928;51.062;13.752;2023-02-05T13:04:29;4.00;;;1.63;;
815;SDS011;25928;51.062;13.752;2023-02-05T13:10:06;1.83;;;1.30;;
815;SDS011;25928;51.062;13.752;2023-02-05T13:12:44;1.40;;;1.30;;
815;SDS011;25928;51.062;13.752;2023-02-05T13:15:18;1.40;;;1.20;;
815;SDS011;25928;51.062;13.752;2023-02-05T13:17:57;1.63;;;1.53;;
815;SDS011;25928;51.062;13.752;2023-02-05T13:20:25;3.30;;;1.70;;
815;SDS011;25928;51.062;13.752;2023-02-05T13:23:15;1.90;;;1.50;;
815;SDS011;25928;51.062;13.752;2023-02-05T13:26:01;2.27;;;1.53;;
815;SDS011;25928;51.062;13.752;2023-02-05T13:29:07;2.43;;;1.30;;
815;SDS011;25928;51.062;13.752;2023-02-05T13:31:36;4.07;;;1.67;;
815;SDS011;25928;51.062;13.752;2023-02-05T13:34:13;4.33;;;1.70;;
815;SDS011;25928;51.062;13.752;2023-02-05T13:39:50;3.17;;;1.80;;
815;SDS011;25928;51.062;13.752;2023-02-05T13:51:15;1.53;;;1.43;;
815;SDS011;25928;51.062;13.752;2023-02-05T13:59:52;1.80;;;1.60;;
815;SDS011;25928;51.062;13.752;2023-02-05T14:04:57;1.90;;;1.60;;
815;SDS011;25928;51.062;13.752;2023-02-05T14:07:34;2.80;;;1.60;;
815;SDS011;25928;51.062;13.752;2023-02-05T14:10:19;1.60;;;1.50;;
815;SDS011;25928;51.062;13.752;2023-02-05T14:12:51;2.00;;;1.37;;
815;SDS011;25928;51.062;13.752;2023-02-05T14:20:51;4.37;;;1.93;;
815;SDS011;25928;51.062;13.752;2023-02-05T14:23:12;2.20;;;1.70;;
815;SDS011;25928;51.062;13.752;2023-02-05T14:38:45;2.30;;;1.50;;
815;SDS011;25928;51.062;13.752;2023-02-05T14:41:25;2.93;;;1.30;;
815;SDS011;25928;51.062;13.752;2023-02-05T14:44:05;1.87;;;1.30;;
815;SDS011;25928;51.062;13.752;2023-02-05T14:46:57;3.33;;;1.43;;
815;SDS011;25928;51.062;13.752;2023-02-05T14:49:43;3.40;;;1.40;;
815;SDS011;25928;51.062;13.752;2023-02-05T14:57:44;2.30;;;1.60;;
815;SDS011;25928;51.062;13.752;2023-02-05T15:00:35;3.83;;;1.33;;
815;SDS011;25928;51.062;13.752;2023-02-05T15:16:44;2.47;;;1.60;;
815;SDS011;25928;51.062;13.752;2023-02-05T15:19:33;2.13;;;1.50;;
815;SDS011;25928;51.062;13.752;2023-02-05T15:22:05;2.40;;;1.63;;
815;SDS011;25928;51.062;13.752;2023-02-05T15:24:42;2.93;;;1.73;;
815;SDS011;25928;51.062;13.752;2023-02-05T15:27:12;3.40;;;2.10;;
815;SDS011;25928;51.062;13.752;2023-02-05T15:29:46;2.57;;;1.80;;
815;SDS011;25928;51.062;13.752;2023-02-05T15:34:51;3.23;;;1.77;;
815;SDS011;25928;51.062;13.752;2023-02-05T15:40:17;3.27;;;2.07;;
815;SDS011;25928;51.062;13.752;2023-02-05T15:42:53;2.80;;;1.97;;
815;SDS011;25928;51.062;13.752;2023-02-05T15:50:30;2.03;;;1.83;;
815;SDS011;25928;51.062;13.752;2023-02-05T15:52:58;4.90;;;2.80;;
815;SDS011;25928;51.062;13.752;2023-02-05T15:55:24;5.60;;;2.23;;
815;SDS011;25928;51.062;13.752;2023-02-05T15:57:57;1.87;;;1.70;;
815;SDS011;25928;51.062;13.752;2023-02-05T16:00:27;2.93;;;2.17;;
815;SDS011;25928;51.062;13.752;2023-02-05T16:02:55;2.50;;;2.10;;
815;SDS011;25928;51.062;13.752;2023-02-05T16:05:23;3.23;;;2.23;;
815;SDS011;25928;51.062;13.752;2023-02-05T16:07:52;4.37;;;3.37;;
815;SDS011;25928;51.062;13.752;2023-02-05T16:10:32;2.67;;;2.47;;
815;SDS011;25928;51.062;13.752;2023-02-05T16:13:03;4.40;;;2.30;;
815;SDS011;25928;51.062;13.752;2023-02-05T16:15:40;4.83;;;2.50;;
815;SDS011;25928;51.062;13.752;2023-02-05T16:18:52;5.10;;;3.27;;
815;SDS011;25928;51.062;13.752;2023-02-05T16:23:59;4.13;;;2.10;;
815;SDS011;25928;51.062;13.752;2023-02-05T16:29:25;3.30;;;2.10;;
815;SDS011;25928;51.062;13.752;2023-02-05T16:31:57;3.17;;;2.87;;
815;SDS011;25928;51.062;13.752;2023-02-05T16:34:27;4.77;;;3.17;;
815;SDS011;25928;51.062;13.752;2023-02-05T16:37:01;5.07;;;2.57;;
815;SDS011;25928;51.062;13.752;2023-02-05T16:39:37;7.07;;;3.17;;
815;SDS011;25928;51.062;13.752;2023-02-05T16:42:29;4.13;;;3.67;;
815;SDS011;25928;51.062;13.752;2023-02-05T16:47:36;4.07;;;3.13;;
815;SDS011;25928;51.062;13.752;2023-02-05T16:50:31;5.70;;;3.93;;
815;SDS011;25928;51.062;13.752;2023-02-05T16:53:02;5.80;;;3.33;;
815;SDS011;25928;51.062;13.752;2023-02-05T16:55:38;5.07;;;3.43;;
815;SDS011;25928;51.062;13.752;2023-02-05T16:58:06;6.10;;;3.10;;
815;SDS011;25928;51.062;13.752;2023-02-05T17:00:32;3.63;;;3.03;;
815;SDS011;25928;51.062;13.752;2023-02-05T17:03:00;4.97;;;3.07;;
815;SDS011;25928;51.062;13.752;2023-02-05T17:05:33;5.20;;;3.33;;
815;SDS011;25928;51.062;13.752;2023-02-05T17:08:04;4.73;;;2.90;;
815;SDS011;25928;51.062;13.752;2023-02-05T17:10:46;3.60;;;3.30;;
815;SDS011;25928;51.062;13.752;2023-02-05T17:16:22;6.03;;;3.53;;
815;SDS011;25928;51.062;13.752;2023-02-05T17:21:24;5.37;;;4.77;;
815;SDS011;25928;51.062;13.752;2023-02-05T17:23:54;4.97;;;3.40;;
815;SDS011;25928;51.062;13.752;2023-02-05T17:26:22;15.37;;;6.30;;
815;SDS011;25928;51.062;13.752;2023-02-05T17:28:52;39.70;;;16.20;;
815;SDS011;25928;51.062;13.752;2023-02-05T17:31:21;60.40;;;21.77;;
815;SDS011;25928;51.062;13.752;2023-02-05T17:33:50;19.13;;;7.10;;
815;SDS011;25928;51.062;13.752;2023-02-05T17:36:17;6.37;;;4.23;;
815;SDS011;25928;51.062;13.752;2023-02-05T17:38:43;4.60;;;3.43;;
815;SDS011;25928;51.062;13.752;2023-02-05T17:41:19;7.17;;;3.00;;
815;SDS011;25928;51.062;13.752;2023-02-05T17:44:07;5.57;;;3.23;;
815;SDS011;25928;51.062;13.752;2023-02-05T17:46:37;5.30;;;3.23;;
815;SDS011;25928;51.062;13.752;2023-02-05T17:49:03;4.80;;;3.47;;
815;SDS011;25928;51.062;13.752;2023-02-05T17:51:29;6.00;;;4.03;;
815;SDS011;25928;51.062;13.752;2023-02-05T17:53:54;5.00;;;4.03;;
815;SDS011;25928;51.062;13.752;2023-02-05T17:56:20;10.63;;;4.70;;
815;SDS011;25928;51.062;13.752;2023-02-05T17:58:47;7.07;;;4.40;;
815;SDS011;25928;51.062;13.752;2023-02-05T18:01:14;10.10;;;6.40;;
815;SDS011;25928;51.062;13.752;2023-02-05T18:03:40;7.83;;;5.50;;
815;SDS011;25928;51.062;13.752;2023-02-05T18:06:06;7.13;;;6.10;;
815;SDS011;25928;51.062;13.752;2023-02-05T18:08:34;11.40;;;6.80;;
815;SDS011;25928;51.062;13.752;2023-02-05T18:11:01;8.90;;;6.37;;
815;SDS011;25928;51.062;13.752;2023-02-05T18:13:27;9.70;;;6.47;;
815;SDS011;25928;51.062;13.752;2023-02-05T18:15:52;10.20;;;6.37;;
815;SDS011;25928;51.062;13.752;2023-02-05T18:18:22;8.67;;;5.73;;
815;SDS011;25928;51.062;13.752;2023-02-05T18:20:48;9.27;;;7.07;;
815;SDS011;25928;51.062;13.752;2023-02-05T18:23:13;7.60;;;5.87;;
815;SDS011;25928;51.062;13.752;2023-02-05T18:25:41;7.23;;;6.20;;
815;SDS011;25928;51.062;13.752;2023-02-05T18:28:06;9.53;;;6.83;;
815;SDS011;25928;51.062;13.752;2023-02-05T18:30:32;6.80;;;5.30;;
815;SDS011;25928;51.062;13.752;2023-02-05T18:32:58;11.50;;;6.37;;
815;SDS011;25928;51.062;13.752;2023-02-05T18:35:23;11.13;;;6.43;;